Time;durP1;ratioP1;P1;durP2;ratioP2;P2;SDS_P1;SDS_P2;PMS_P1;PMS_P2;Temp;Humidity;BMP_temperature;BMP_pressure;BME280_temperature;BME280_humidity;BME280_pressure;Samples;Min_cycle;Max_cycle;Signal;HPM_P1;HPM_P2
2023/06/21 00:01:43;;;;;;;3.50;2.00;;;;;;;14.24;100.00;100121.84;6183742;22;20420;-94
2023/06/21 00:04:08;;;;;;;6.13;2.00;;;;;;;14.26;100.00;100132.94;6287486;22;20066;-95
2023/06/21 00:06:34;;;;;;;2.83;1.60;;;;;;;14.30;100.00;100129.19;6287281;22;20369;-94
2023/06/21 00:09:03;;;;;;;3.20;1.77;;;;;;;14.23;100.00;100128.81;6286714;22;20044;-93
2023/06/21 00:11:29;;;;;;;4.28;2.20;;;;;;;14.40;100.00;100124.09;6286909;22;20438;-94
2023/06/21 00:13:55;;;;;;;5.20;1.52;;;;;;;14.22;100.00;100122.00;6287049;22;20127;-92
2023/06/21 00:16:21;;;;;;;3.20;2.03;;;;;;;14.15;100.00;100123.41;6183044;22;20040;-92
2023/06/21 00:18:47;;;;;;;3.38;1.95;;;;;;;14.12;100.00;100132.25;6286784;22;20435;-94
2023/06/21 00:21:13;;;;;;;2.08;1.40;;;;;;;14.09;100.00;100126.47;6286868;22;20008;-93
2023/06/21 00:23:41;;;;;;;3.33;1.70;;;;;;;14.02;100.00;100125.28;6286620;22;20572;-93
2023/06/21 00:26:07;;;;;;;19.15;1.83;;;;;;;14.04;100.00;100131.19;6286501;22;20070;-93
2023/06/21 00:28:32;;;;;;;3.58;1.70;;;;;;;13.97;100.00;100128.22;6286659;22;20453;-92
2023/06/21 00:30:58;;;;;;;3.67;1.90;;;;;;;13.97;100.00;100132.59;6286075;22;20001;-93
2023/06/21 00:33:23;;;;;;;3.10;1.90;;;;;;;13.94;100.00;100133.66;6182678;23;20012;-93
2023/06/21 00:35:49;;;;;;;3.83;1.60;;;;;;;13.89;100.00;100133.19;6287156;22;20005;-93
2023/06/21 00:38:14;;;;;;;3.25;1.70;;;;;;;13.89;100.00;100133.19;6286829;22;20005;-95
2023/06/21 00:40:39;;;;;;;2.28;1.67;;;;;;;13.85;100.00;100118.78;6286688;22;20005;-94
2023/06/21 00:43:05;;;;;;;7.97;1.67;;;;;;;13.94;100.00;100128.47;6182310;23;20324;-91
2023/06/21 00:45:38;;;;;;;4.50;1.77;;;;;;;13.71;100.00;100127.63;6286053;22;20001;-93
2023/06/21 00:48:04;;;;;;;2.67;1.58;;;;;;;13.67;100.00;100136.56;6286438;22;20005;-96
2023/06/21 00:50:29;;;;;;;5.35;1.35;;;;;;;13.66;100.00;100138.34;6286499;22;20392;-92
2023/06/21 00:52:55;;;;;;;4.32;1.80;;;;;;;13.56;100.00;100141.72;6286710;22;20013;-93
2023/06/21 00:55:23;;;;;;;3.72;1.73;;;;;;;13.54;100.00;100141.03;6287073;22;20474;-93
2023/06/21 00:57:51;;;;;;;4.20;1.50;;;;;;;13.57;100.00;100151.19;6288597;22;20016;-95
2023/06/21 01:00:20;;;;;;;13.60;1.67;;;;;;;13.44;100.00;100149.50;6286844;22;20105;-95
2023/06/21 01:02:47;;;;;;;5.55;1.48;;;;;;;13.47;100.00;100154.44;6287421;22;20016;-92
2023/06/21 01:05:16;;;;;;;3.58;1.23;;;;;;;13.45;100.00;100147.72;6286620;22;20059;-94
2023/06/21 01:08:02;;;;;;;2.15;1.27;;;;;;;13.49;100.00;100155.16;6284985;22;20001;-94
2023/06/21 01:10:46;;;;;;;2.50;1.40;;;;;;;13.45;100.00;100163.28;6284971;22;20439;-94
2023/06/21 01:13:12;;;;;;;4.07;1.80;;;;;;;13.35;100.00;100157.94;6284278;22;20008;-94
2023/06/21 01:15:49;;;;;;;3.72;1.40;;;;;;;13.32;100.00;100162.53;6284983;22;20088;-92
2023/06/21 01:18:17;;;;;;;3.88;1.38;;;;;;;13.26;100.00;100163.78;6285027;22;20062;-94
2023/06/21 01:20:48;;;;;;;2.67;1.30;;;;;;;13.22;100.00;100158.00;6284534;22;20001;-94
2023/06/21 01:23:26;;;;;;;2.00;1.38;;;;;;;13.16;100.00;100168.78;6285280;22;19997;-93
2023/06/21 01:26:11;;;;;;;2.38;1.02;;;;;;;13.16;100.00;100163.63;6179271;23;20005;-93
2023/06/21 01:28:55;;;;;;;3.38;1.40;;;;;;;13.25;100.00;100167.31;6178639;22;20065;-94
2023/06/21 01:31:22;;;;;;;1.55;1.13;;;;;;;13.21;100.00;100161.50;6284548;22;20447;-93
2023/06/21 01:33:49;;;;;;;2.85;1.27;;;;;;;13.20;100.00;100159.88;6180642;23;20096;-93
2023/06/21 01:36:14;;;;;;;2.67;1.45;;;;;;;13.21;100.00;100168.47;6285212;22;20001;-94
2023/06/21 01:38:40;;;;;;;2.67;1.40;;;;;;;13.23;100.00;100172.59;6285158;22;20002;-92
2023/06/21 01:41:10;;;;;;;4.25;2.03;;;;;;;13.17;100.00;100172.22;6284556;22;20088;-94
2023/06/21 01:43:37;;;;;;;5.07;1.88;;;;;;;13.24;100.00;100174.25;6284866;22;20116;-93
2023/06/21 01:46:04;;;;;;;3.38;1.40;;;;;;;13.20;100.00;100180.59;6284584;22;20009;-92
2023/06/21 01:48:33;;;;;;;2.80;1.73;;;;;;;13.18;100.00;100181.66;6180686;22;20001;-93
2023/06/21 01:51:01;;;;;;;3.00;1.65;;;;;;;13.13;100.00;100189.75;6284513;22;20006;-92
2023/06/21 01:53:26;;;;;;;2.28;1.55;;;;;;;13.19;100.00;100178.09;6284536;22;20348;-92
2023/06/21 01:55:56;;;;;;;4.82;1.90;;;;;;;13.10;100.00;100187.38;6284906;22;20012;-93
2023/06/21 01:58:22;;;;;;;3.55;1.75;;;;;;;12.97;100.00;100189.19;6284576;22;20001;-91
2023/06/21 02:00:48;;;;;;;4.30;1.80;;;;;;;12.85;100.00;100186.56;6283179;22;20009;-91
2023/06/21 02:03:16;;;;;;;2.15;1.75;;;;;;;12.91;100.00;100194.81;6283711;22;20036;-93
2023/06/21 02:05:42;;;;;;;3.63;1.73;;;;;;;12.95;100.00;100194.50;6284633;22;20054;-92
2023/06/21 02:08:15;;;;;;;1.85;1.42;;;;;;;12.86;100.00;100197.75;6284654;22;20005;-93
2023/06/21 02:10:44;;;;;;;3.00;1.58;;;;;;;12.80;100.00;100200.75;6284532;22;20001;-94
2023/06/21 02:13:10;;;;;;;3.65;1.67;;;;;;;12.78;100.00;100206.06;6284892;22;20012;-94
2023/06/21 02:15:38;;;;;;;2.67;1.70;;;;;;;12.86;100.00;100213.28;6284820;22;20013;-92
2023/06/21 02:18:03;;;;;;;2.75;1.73;;;;;;;12.79;100.00;100210.28;6284457;22;20025;-93
2023/06/21 02:20:29;;;;;;;2.60;1.80;;;;;;;12.75;100.00;100214.03;6284107;22;20031;-93
2023/06/21 02:22:54;;;;;;;3.42;1.80;;;;;;;12.73;100.00;100222.81;6284131;22;20091;-93
2023/06/21 02:25:21;;;;;;;8.15;2.53;;;;;;;12.69;100.00;100214.47;6284236;22;20309;-93
2023/06/21 02:27:47;;;;;;;3.33;1.90;;;;;;;12.63;100.00;100207.97;6181155;22;20001;-93
2023/06/21 02:30:13;;;;;;;3.20;1.88;;;;;;;12.69;100.00;100206.69;6180581;23;20043;-94
2023/06/21 02:32:39;;;;;;;2.42;1.65;;;;;;;12.75;100.00;100211.47;6284363;22;20001;-94
2023/06/21 02:35:05;;;;;;;3.60;1.88;;;;;;;12.72;100.00;100216.00;6284333;22;20416;-93
2023/06/21 02:37:30;;;;;;;5.03;1.75;;;;;;;12.71;100.00;100227.31;6284153;22;20015;-93
2023/06/21 02:39:56;;;;;;;4.10;2.58;;;;;;;12.74;100.00;100214.97;6284470;22;20083;-92
2023/06/21 02:42:23;;;;;;;4.13;2.40;;;;;;;12.69;100.00;100214.47;6284505;22;20059;-91
2023/06/21 02:44:48;;;;;;;6.40;2.55;;;;;;;12.72;100.00;100205.66;6284014;22;20005;-92
2023/06/21 02:47:14;;;;;;;5.03;2.75;;;;;;;12.77;100.00;100206.97;6283781;22;20446;-93
2023/06/21 02:49:39;;;;;;;3.70;2.17;;;;;;;12.88;100.00;100214.00;6284267;22;20134;-94
2023/06/21 02:52:05;;;;;;;5.18;2.05;;;;;;;12.83;100.00;100209.16;6284253;22;19997;-94
2023/06/21 02:54:31;;;;;;;6.85;2.20;;;;;;;12.87;100.00;100214.09;6180338;23;20005;-94
2023/06/21 02:56:57;;;;;;;4.82;2.10;;;;;;;12.76;100.00;100207.91;6180248;23;20005;-93
2023/06/21 02:59:22;;;;;;;6.72;2.15;;;;;;;12.75;100.00;100218.38;6283534;22;20005;-94
2023/06/21 03:01:48;;;;;;;4.50;2.00;;;;;;;12.72;100.00;100211.66;6180340;23;20002;-92
2023/06/21 03:04:18;;;;;;;2.45;2.05;;;;;;;12.69;100.00;100216.22;6283956;22;20036;-93
2023/06/21 03:06:44;;;;;;;8.13;2.88;;;;;;;12.67;100.00;100213.72;6284610;22;20369;-93
2023/06/21 03:09:10;;;;;;;6.15;2.45;;;;;;;12.59;100.00;100218.63;6284255;22;20005;-93
2023/06/21 03:11:35;;;;;;;2.67;1.95;;;;;;;12.52;100.00;100225.97;6284484;22;20078;-93
2023/06/21 03:14:01;;;;;;;5.05;1.88;;;;;;;12.43;100.00;100216.25;6283873;22;20093;-93
2023/06/21 03:16:26;;;;;;;4.35;2.08;;;;;;;12.38;100.00;100224.34;6283770;22;20072;-93
2023/06/21 03:18:52;;;;;;;8.57;2.17;;;;;;;12.50;100.00;100224.44;6180800;22;20050;-93
2023/06/21 03:21:17;;;;;;;4.18;2.20;;;;;;;12.51;100.00;100226.06;6283878;22;20005;-93
2023/06/21 03:23:43;;;;;;;3.20;2.00;;;;;;;12.50;100.00;100222.66;6283541;22;20009;-93
2023/06/21 03:26:09;;;;;;;4.80;2.65;;;;;;;12.45;100.00;100229.09;6180734;22;20016;-92
2023/06/21 03:28:34;;;;;;;5.85;2.30;;;;;;;12.50;100.00;100227.03;6284039;22;20005;-93
2023/06/21 03:31:00;;;;;;;4.28;2.50;;;;;;;12.39;100.00;100231.19;6282755;22;20024;-93
2023/06/21 03:33:26;;;;;;;6.00;2.45;;;;;;;12.43;100.00;100217.06;6179450;23;20013;-92
2023/06/21 03:35:52;;;;;;;3.85;2.42;;;;;;;12.45;100.00;100216.16;6284239;22;20063;-92
2023/06/21 03:38:17;;;;;;;4.25;2.70;;;;;;;12.44;100.00;100223.09;6284219;22;20005;-93
2023/06/21 03:40:43;;;;;;;4.40;2.25;;;;;;;12.42;100.00;100225.78;6283824;22;20024;-91
2023/06/21 03:43:09;;;;;;;3.35;2.30;;;;;;;12.35;100.00;100240.06;6283934;22;20012;-93
2023/06/21 03:45:34;;;;;;;4.65;2.38;;;;;;;12.42;100.00;100235.31;6283795;22;20005;-92
2023/06/21 03:48:03;;;;;;;4.28;2.35;;;;;;;12.29;100.00;100235.34;6179875;23;20419;-93
2023/06/21 03:50:29;;;;;;;3.97;1.90;;;;;;;12.29;100.00;100240.50;6283885;22;20005;-93
2023/06/21 03:52:54;;;;;;;5.45;2.35;;;;;;;12.27;100.00;100246.72;6283786;22;20007;-93
2023/06/21 03:55:19;;;;;;;4.05;2.40;;;;;;;12.16;100.00;100244.84;6283233;22;20040;-94
2023/06/21 03:57:45;;;;;;;4.03;2.65;;;;;;;12.22;100.00;100247.03;6283572;22;20468;-93
2023/06/21 04:00:11;;;;;;;6.72;3.08;;;;;;;12.25;100.00;100256.34;6283564;22;20098;-91
2023/06/21 04:02:36;;;;;;;4.10;2.70;;;;;;;12.32;100.00;100250.66;6180181;22;20585;-92
2023/06/21 04:05:02;;;;;;;4.18;2.70;;;;;;;12.34;100.00;100253.97;6283825;22;20293;-94
2023/06/21 04:07:27;;;;;;;5.07;3.00;;;;;;;12.22;100.00;100244.44;6283542;22;19998;-93
2023/06/21 04:09:53;;;;;;;5.93;3.58;;;;;;;12.31;100.00;100248.97;6283788;22;20009;-93
2023/06/21 04:12:18;;;;;;;5.07;3.55;;;;;;;12.33;100.00;100254.88;6283516;22;20008;-93
2023/06/21 04:14:44;;;;;;;3.58;2.83;;;;;;;12.25;100.00;100258.94;6283490;22;20001;-92
2023/06/21 04:17:09;;;;;;;5.07;3.45;;;;;;;12.33;100.00;100265.22;6283229;22;20029;-93
2023/06/21 04:19:34;;;;;;;4.60;3.15;;;;;;;12.29;100.00;100271.56;6283453;22;20005;-92
2023/06/21 04:22:00;;;;;;;6.50;3.10;;;;;;;12.36;100.00;100272.81;6283844;22;20009;-93
2023/06/21 04:24:25;;;;;;;7.38;2.72;;;;;;;12.30;100.00;100275.78;6283035;22;20665;-93
2023/06/21 04:26:51;;;;;;;7.97;2.97;;;;;;;12.20;100.00;100273.00;6283450;22;20006;-93
2023/06/21 04:29:20;;;;;;;7.45;4.00;;;;;;;12.23;100.00;100274.56;6179616;22;20001;-93
2023/06/21 04:31:45;;;;;;;6.15;3.30;;;;;;;12.28;100.00;100285.41;6283342;22;20005;-93
2023/06/21 04:34:11;;;;;;;5.47;3.25;;;;;;;12.24;100.00;100276.22;6283393;22;20084;-91
2023/06/21 04:36:37;;;;;;;4.60;3.17;;;;;;;12.33;100.00;100278.16;6179508;23;20005;-91
2023/06/21 04:39:02;;;;;;;4.05;2.50;;;;;;;12.34;100.00;100290.19;6179515;22;20344;-91
2023/06/21 04:41:28;;;;;;;6.85;2.65;;;;;;;12.34;100.00;100290.19;6283138;22;20005;-92
2023/06/21 04:43:53;;;;;;;4.60;3.28;;;;;;;12.38;100.00;100281.28;6180937;22;20012;-92
2023/06/21 04:46:21;;;;;;;7.35;2.53;;;;;;;12.39;100.00;100288.13;6180947;22;19997;-93
2023/06/21 04:48:50;;;;;;;3.78;2.35;;;;;;;12.38;100.00;100294.22;6285159;22;20044;-93
2023/06/21 04:51:16;;;;;;;3.65;3.00;;;;;;;12.48;100.00;100296.19;6181337;22;20002;-93
2023/06/21 04:53:42;;;;;;;4.60;2.90;;;;;;;12.42;100.00;100302.63;6284030;22;20009;-93
2023/06/21 04:56:08;;;;;;;8.80;3.38;;;;;;;12.48;100.00;100302.19;6284998;22;20089;-93
2023/06/21 04:58:37;;;;;;;7.28;4.00;;;;;;;12.62;100.00;100306.44;6180910;22;20032;-93
2023/06/21 05:01:03;;;;;;;6.07;3.42;;;;;;;12.62;100.00;100312.44;6285086;22;20005;-93
2023/06/21 05:03:28;;;;;;;4.95;3.15;;;;;;;12.59;100.00;100315.25;6180960;23;20001;-93
2023/06/21 05:05:54;;;;;;;6.72;2.88;;;;;;;12.57;100.00;100321.47;6181275;22;20005;-93
2023/06/21 05:08:20;;;;;;;3.58;2.55;;;;;;;12.49;100.00;100314.22;6284667;22;20416;-94
2023/06/21 05:10:45;;;;;;;5.05;3.05;;;;;;;12.57;100.00;100316.28;6180950;22;20066;-94
2023/06/21 05:13:10;;;;;;;2.97;2.55;;;;;;;12.62;100.00;100321.97;6181035;22;20380;-94
2023/06/21 05:15:36;;;;;;;5.43;3.38;;;;;;;12.64;100.00;100322.69;6181281;22;20001;-92
2023/06/21 05:18:01;;;;;;;3.22;2.90;;;;;;;12.65;100.00;100324.34;6285102;22;20006;-92
2023/06/21 05:20:27;;;;;;;5.20;2.78;;;;;;;12.65;100.00;100324.34;6284766;22;20018;-91
2023/06/21 05:22:54;;;;;;;3.22;2.45;;;;;;;12.71;100.00;100329.13;6180673;22;20005;-93
2023/06/21 05:25:20;;;;;;;4.30;2.45;;;;;;;12.72;100.00;100329.94;6285154;22;20446;-93
2023/06/21 05:27:45;;;;;;;4.35;2.85;;;;;;;12.78;100.00;100335.53;6284979;22;20012;-93
2023/06/21 05:30:10;;;;;;;4.18;2.90;;;;;;;12.90;100.00;100344.25;6284973;22;20005;-92
2023/06/21 05:32:36;;;;;;;3.20;2.40;;;;;;;12.90;100.00;100340.81;6285002;22;20017;-94
2023/06/21 05:35:01;;;;;;;6.13;2.75;;;;;;;12.95;100.00;100342.16;6284884;22;20012;-94
2023/06/21 05:37:27;;;;;;;5.43;2.65;;;;;;;13.00;100.00;100344.44;6284951;22;20085;-93
2023/06/21 05:39:52;;;;;;;7.40;3.33;;;;;;;13.06;100.00;100350.00;6284945;22;20008;-94
2023/06/21 05:42:18;;;;;;;3.63;2.67;;;;;;;13.14;100.00;100354.66;6180776;23;20008;-93
2023/06/21 05:44:43;;;;;;;3.67;2.97;;;;;;;13.30;100.00;100353.63;6284943;22;20424;-92
2023/06/21 05:47:09;;;;;;;7.63;2.83;;;;;;;13.41;100.00;100358.88;6180986;22;20001;-93
2023/06/21 05:49:34;;;;;;;6.75;3.20;;;;;;;13.50;100.00;100358.22;6284770;22;20001;-92
2023/06/21 05:51:59;;;;;;;9.38;4.43;;;;;;;13.84;100.00;100355.81;6284722;22;20013;-93
2023/06/21 05:54:25;;;;;;;3.85;3.25;;;;;;;13.92;100.00;100358.66;6283011;22;20016;-92
2023/06/21 05:56:51;;;;;;;9.15;4.00;;;;;;;14.03;100.00;100368.28;6284036;22;20074;-95
2023/06/21 05:59:17;;;;;;;5.40;3.75;;;;;;;14.00;100.00;100366.75;6180870;22;20005;-93
2023/06/21 06:01:42;;;;;;;6.22;3.67;;;;;;;14.00;100.00;100368.53;6180695;22;20549;-92
2023/06/21 06:04:08;;;;;;;8.10;3.90;;;;;;;14.04;100.00;100373.34;6180951;22;20001;-92
2023/06/21 06:06:35;;;;;;;8.85;4.20;;;;;;;14.17;100.00;100380.22;6180801;22;20309;-93
2023/06/21 06:09:01;;;;;;;8.55;4.47;;;;;;;14.28;100.00;100385.47;6284506;22;20009;-94
2023/06/21 06:11:27;;;;;;;5.10;3.83;;;;;;;14.35;100.00;100381.47;6285127;22;20423;-94
2023/06/21 06:13:52;;;;;;;8.98;4.30;;;;;;;14.45;100.00;100377.25;6284263;22;20033;-94
2023/06/21 06:16:17;;;;;;;6.13;4.30;;;;;;;15.80;100.00;100382.47;6180687;23;20008;-93
2023/06/21 06:18:43;;;;;;;6.60;4.43;;;;;;;15.76;100.00;100391.47;6180669;23;20005;-93
2023/06/21 06:21:08;;;;;;;9.43;4.35;;;;;;;15.45;100.00;100397.44;6284632;22;20006;-94
2023/06/21 06:23:34;;;;;;;5.75;3.60;;;;;;;15.56;100.00;100390.44;6284432;22;20005;-95
2023/06/21 06:25:59;;;;;;;7.75;4.07;;;;;;;15.73;100.00;100389.13;6284244;22;20011;-92
2023/06/21 06:28:25;;;;;;;4.90;3.97;;;;;;;16.21;100.00;100401.72;6284791;22;20395;-92
2023/06/21 06:30:50;;;;;;;7.80;4.22;;;;;;;16.59;100.00;100399.53;6181170;23;20054;-94
2023/06/21 06:33:16;;;;;;;7.18;3.88;;;;;;;16.86;100.00;100409.44;6284969;22;20432;-95
2023/06/21 06:35:41;;;;;;;4.68;3.35;;;;;;;17.98;95.99;100412.00;6284125;22;20069;-93
2023/06/21 06:38:07;;;;;;;10.18;3.47;;;;;;;20.85;78.85;100410.94;6179638;23;20005;-94
2023/06/21 06:40:33;;;;;;;4.03;2.97;;;;;;;22.85;67.28;100422.34;6286478;22;20432;-94
2023/06/21 06:42:58;;;;;;;5.68;3.55;;;;;;;24.24;58.51;100429.56;6283753;22;20033;-95
2023/06/21 06:45:24;;;;;;;5.22;2.80;;;;;;;21.53;67.24;100431.13;6181738;23;20005;-95
2023/06/21 06:47:49;;;;;;;7.35;3.25;;;;;;;20.13;73.64;100434.66;6287328;22;20001;-92
2023/06/21 06:50:15;;;;;;;6.35;2.85;;;;;;;19.32;77.85;100437.22;6181461;23;20009;-94
2023/06/21 06:52:40;;;;;;;8.27;3.67;;;;;;;18.92;80.63;100433.94;6290935;22;20195;-93
2023/06/21 06:55:06;;;;;;;5.78;3.95;;;;;;;18.89;79.81;100443.84;6288607;22;20041;-93
2023/06/21 06:57:31;;;;;;;10.38;3.60;;;;;;;18.75;83.20;100442.44;6287054;22;20002;-93
2023/06/21 06:59:57;;;;;;;7.13;3.17;;;;;;;18.98;82.21;100453.47;6286646;22;20177;-96
2023/06/21 07:02:22;;;;;;;7.05;3.67;;;;;;;19.27;79.97;100444.69;6290422;22;20008;-94
2023/06/21 07:04:48;;;;;;;5.13;2.90;;;;;;;20.64;73.66;100433.13;6289162;22;20001;-95
2023/06/21 07:07:14;;;;;;;7.80;3.20;;;;;;;20.67;72.56;100447.75;6179819;23;20008;-94
2023/06/21 07:09:39;;;;;;;5.03;2.80;;;;;;;20.68;71.00;100460.72;6288184;22;20001;-93
2023/06/21 07:12:05;;;;;;;4.97;3.08;;;;;;;21.90;66.95;100464.09;6284834;22;20013;-96
2023/06/21 07:14:30;;;;;;;7.53;3.10;;;;;;;21.69;66.75;100462.72;6280791;22;20009;-95
2023/06/21 07:17:13;;;;;;;6.90;3.13;;;;;;;20.79;70.49;100459.63;6285344;22;20009;-95
2023/06/21 07:19:41;;;;;;;5.13;2.65;;;;;;;19.79;76.99;100471.16;6287131;22;20521;-96
2023/06/21 07:22:07;;;;;;;3.65;2.70;;;;;;;19.82;76.95;100469.06;6285682;22;20443;-92
2023/06/21 07:24:32;;;;;;;5.00;2.60;;;;;;;19.47;77.87;100469.78;6283227;22;20009;-93
2023/06/21 07:26:57;;;;;;;5.63;2.80;;;;;;;19.21;79.95;100483.50;6179454;22;20324;-94
2023/06/21 07:29:23;;;;;;;4.22;3.20;;;;;;;19.22;81.38;100476.50;6180862;22;20001;-92
2023/06/21 07:31:48;;;;;;;3.60;2.40;;;;;;;18.87;81.71;100482.38;6287811;22;20005;-94
2023/06/21 07:34:14;;;;;;;5.30;2.45;;;;;;;19.15;80.56;100486.72;6300704;22;20005;-96
2023/06/21 07:36:40;;;;;;;4.72;2.50;;;;;;;19.27;81.74;100484.75;6298565;22;20428;-96
2023/06/21 07:42:12;;;;;;;5.05;2.50;;;;;;;19.19;84.58;100492.47;6150353;23;20022;-96
2023/06/21 07:44:37;;;;;;;3.13;2.60;;;;;;;18.90;89.53;100496.00;6221538;22;20092;-96
2023/06/21 07:47:04;;;;;;;2.65;2.15;;;;;;;19.02;87.05;100494.06;6275687;22;20005;-96
2023/06/21 07:57:54;;;;;;;5.43;2.80;;;;;;;19.86;80.24;100508.91;6173694;23;20024;-96
2023/06/21 08:50:45;;;;;;;1.67;0.73;;;;;;;26.58;49.55;100531.16;6132583;23;20014;-96
2023/06/21 08:53:19;;;;;;;4.75;1.20;;;;;;;24.26;52.01;100542.78;6132741;22;20013;-96
2023/06/21 08:55:52;;;;;;;3.70;1.30;;;;;;;25.51;51.77;100535.28;6269567;22;20019;-96
2023/06/21 08:58:25;;;;;;;3.88;1.00;;;;;;;25.99;49.88;100530.38;6246216;22;20026;-96
2023/06/21 09:00:53;;;;;;;1.98;0.90;;;;;;;24.89;51.78;100532.91;6292927;22;20428;-96
2023/06/21 09:06:03;;;;;;;7.38;1.58;;;;;;;26.35;49.15;100540.09;6162008;23;20021;-96
2023/06/21 09:08:30;;;;;;;2.50;1.00;;;;;;;26.33;47.76;100541.31;6141537;23;20005;-96
2023/06/21 09:11:00;;;;;;;4.97;1.00;;;;;;;26.20;47.95;100542.81;6142986;22;20096;-96
2023/06/21 09:21:27;;;;;;;4.43;1.20;;;;;;;26.47;46.03;100543.88;6183097;23;20021;-96
2023/06/21 09:23:53;;;;;;;5.45;1.17;;;;;;;26.25;45.44;100544.88;6299514;22;20069;-96
2023/06/21 09:28:50;;;;;;;2.65;0.77;;;;;;;25.95;44.88;100555.56;6188426;23;20021;-96
2023/06/21 09:34:02;;;;;;;2.50;0.82;;;;;;;27.18;44.31;100561.56;6134384;23;20173;-96
2023/06/21 09:36:31;;;;;;;2.85;0.80;;;;;;;27.50;44.68;100560.16;6102247;23;20012;-96
2023/06/21 09:39:10;;;;;;;1.80;0.85;;;;;;;27.19;44.49;100557.97;6113237;23;20021;-96
2023/06/21 09:41:36;;;;;;;3.47;1.00;;;;;;;27.47;44.15;100554.44;6124280;23;20077;-96
2023/06/21 09:44:08;;;;;;;1.48;1.10;;;;;;;27.67;44.14;100552.69;6100218;23;20024;-96
2023/06/21 09:46:41;;;;;;;1.75;0.90;;;;;;;27.16;44.45;100558.28;6102728;23;20108;-96
2023/06/21 09:49:09;;;;;;;3.63;1.20;;;;;;;27.23;45.08;100553.88;6101362;23;20333;-96
2023/06/21 09:51:53;;;;;;;2.45;1.05;;;;;;;27.07;45.61;100560.28;6116284;23;20041;-96
2023/06/21 09:54:18;;;;;;;4.20;1.13;;;;;;;27.11;43.19;100558.88;6109166;23;20002;-96
2023/06/21 09:56:44;;;;;;;4.30;1.20;;;;;;;26.37;45.23;100569.84;6110618;23;20461;-95
2023/06/21 10:02:03;;;;;;;1.10;0.90;;;;;;;28.06;42.96;100555.72;6178733;23;20009;-96
2023/06/21 10:04:42;;;;;;;3.50;1.10;;;;;;;27.19;43.32;100562.41;6286540;22;20012;-96
2023/06/21 10:07:36;;;;;;;2.25;1.27;;;;;;;27.23;44.43;100559.19;6290102;22;20009;-96
2023/06/21 10:10:06;;;;;;;2.05;1.05;;;;;;;26.82;43.91;100567.81;6198382;22;20011;-95
2023/06/21 10:15:00;;;;;;;2.38;1.20;;;;;;;27.83;41.26;100574.63;6182129;23;20456;-94
2023/06/21 10:17:26;;;;;;;2.22;0.98;;;;;;;28.32;42.55;100560.25;6283412;22;20015;-96
2023/06/21 10:19:53;;;;;;;1.85;1.10;;;;;;;27.07;43.21;100564.78;6180497;22;20058;-96
2023/06/21 10:22:20;;;;;;;1.40;0.90;;;;;;;27.42;42.03;100572.75;6286976;22;19989;-96
2023/06/21 10:25:15;;;;;;;1.73;1.13;;;;;;;28.08;40.82;100573.06;6292877;22;20384;-96
2023/06/21 10:27:50;;;;;;;1.20;0.82;;;;;;;28.77;40.27;100560.50;6297039;22;20001;-96
2023/06/21 10:30:23;;;;;;;3.50;1.10;;;;;;;27.68;42.69;100562.28;6295837;22;20011;-96
2023/06/21 10:32:50;;;;;;;2.88;1.25;;;;;;;28.09;40.76;100565.91;6304050;22;20050;-96
2023/06/21 10:35:22;;;;;;;2.75;1.42;;;;;;;27.29;42.65;100568.22;6295708;22;20009;-96
2023/06/21 10:38:03;;;;;;;2.63;1.42;;;;;;;27.43;43.18;100563.78;6287038;22;19997;-96
2023/06/21 10:40:29;;;;;;;7.03;1.20;;;;;;;26.80;46.09;100566.38;6273529;22;20022;-96
2023/06/21 10:43:00;;;;;;;1.17;0.85;;;;;;;26.45;44.51;100569.72;6271640;22;20024;-96
2023/06/21 10:45:28;;;;;;;2.17;1.00;;;;;;;26.47;45.36;100573.00;6256755;22;20005;-95
2023/06/21 10:47:57;;;;;;;2.47;1.20;;;;;;;26.23;46.66;100568.88;6263231;22;20009;-96
2023/06/21 10:50:24;;;;;;;2.47;1.27;;;;;;;25.92;46.42;100565.69;6268975;22;20028;-94
2023/06/21 10:53:13;;;;;;;2.67;1.00;;;;;;;26.52;44.83;100571.63;6152100;22;20001;-96
2023/06/21 10:55:51;;;;;;;2.20;1.00;;;;;;;26.71;45.99;100573.66;6199911;22;20044;-96
2023/06/21 10:58:27;;;;;;;2.33;0.98;;;;;;;27.07;44.78;100568.25;6252476;22;20025;-95
2023/06/21 11:00:53;;;;;;;4.00;1.00;;;;;;;27.72;43.54;100568.81;6226222;22;20048;-96
2023/06/21 11:03:28;;;;;;;2.28;1.00;;;;;;;28.77;42.94;100566.63;6253396;22;20013;-96
2023/06/21 11:06:25;;;;;;;4.00;1.35;;;;;;;28.67;42.20;100571.56;6256103;22;20011;-96
2023/06/21 11:08:54;;;;;;;3.55;1.27;;;;;;;29.10;41.34;100570.34;6161111;23;20012;-96
2023/06/21 11:11:33;;;;;;;3.70;1.25;;;;;;;28.16;39.69;100577.38;6257273;22;20009;-95
2023/06/21 11:14:03;;;;;;;5.40;1.48;;;;;;;28.21;41.66;100571.47;6163104;22;20005;-96
2023/06/21 11:16:37;;;;;;;2.95;1.10;;;;;;;27.95;41.76;100578.34;6260353;22;20085;-93
2023/06/21 11:19:06;;;;;;;3.75;1.55;;;;;;;26.74;44.13;100578.56;6152343;22;20001;-96
2023/06/21 11:24:09;;;;;;;2.40;1.00;;;;;;;27.29;42.93;100576.16;6179169;23;20021;-96
2023/06/21 11:26:52;;;;;;;4.10;1.23;;;;;;;28.12;42.87;100579.63;6192949;23;20080;-96
2023/06/21 11:29:40;;;;;;;11.70;1.42;;;;;;;29.05;41.65;100584.22;6297732;22;20103;-95
2023/06/21 11:32:20;;;;;;;3.03;1.35;;;;;;;28.41;41.73;100580.31;6291803;22;20028;-96
2023/06/21 11:35:01;;;;;;;4.63;2.28;;;;;;;29.58;38.72;100578.81;6300792;22;20017;-96
2023/06/21 11:37:44;;;;;;;3.72;1.15;;;;;;;27.75;40.61;100579.06;6296829;22;20071;-96
2023/06/21 11:40:29;;;;;;;1.98;0.98;;;;;;;27.36;42.18;100586.78;6303927;22;20009;-96
2023/06/21 11:43:22;;;;;;;1.65;1.20;;;;;;;27.38;41.64;100584.75;6293417;22;20021;-96
2023/06/21 11:46:02;;;;;;;1.45;0.93;;;;;;;27.51;42.82;100580.34;6294276;22;20084;-96
2023/06/21 11:48:33;;;;;;;2.67;1.42;;;;;;;27.82;42.89;100580.91;6296069;22;20005;-96
2023/06/21 11:51:16;;;;;;;4.47;1.25;;;;;;;27.70;41.70;100575.34;6200649;22;20001;-96
2023/06/21 11:53:43;;;;;;;3.10;1.42;;;;;;;28.34;41.85;100587.44;6300944;22;20065;-96
2023/06/21 11:56:10;;;;;;;2.85;1.27;;;;;;;27.42;42.06;100580.72;6300095;22;20068;-96
2023/06/21 11:58:41;;;;;;;2.45;1.15;;;;;;;28.10;41.64;100581.66;6303154;22;20005;-96
2023/06/21 12:01:13;;;;;;;4.05;1.30;;;;;;;28.11;40.98;100575.31;6297785;22;20005;-96
2023/06/21 12:03:42;;;;;;;2.83;1.23;;;;;;;28.06;40.57;100580.41;6298825;22;20002;-96
2023/06/21 12:06:11;;;;;;;3.25;1.48;;;;;;;28.14;42.20;100588.19;6307112;22;19998;-96
2023/06/21 12:08:38;;;;;;;3.03;1.45;;;;;;;27.38;43.18;100588.22;6272528;22;20013;-96
2023/06/21 12:11:06;;;;;;;2.28;1.23;;;;;;;28.02;41.62;100589.78;6295523;22;20001;-96
2023/06/21 12:13:33;;;;;;;4.13;1.55;;;;;;;28.26;42.30;100595.56;6188977;22;20001;-95
2023/06/21 12:16:07;;;;;;;2.45;1.33;;;;;;;27.06;44.04;100601.03;6293391;22;20009;-96
2023/06/21 12:18:35;;;;;;;3.03;1.60;;;;;;;26.61;45.00;100603.09;6296222;22;20001;-96
2023/06/21 12:21:07;;;;;;;2.78;1.20;;;;;;;27.37;43.51;100612.28;6295254;22;20001;-96
2023/06/21 12:23:44;;;;;;;2.55;1.30;;;;;;;27.62;44.06;100591.41;6300046;22;20041;-96
2023/06/21 12:26:17;;;;;;;3.08;1.25;;;;;;;27.25;43.29;100599.56;6278452;22;20052;-96
2023/06/21 12:28:56;;;;;;;2.63;1.17;;;;;;;28.55;41.45;100595.22;6201454;22;20002;-96
2023/06/21 12:31:30;;;;;;;2.92;1.35;;;;;;;29.36;40.21;100585.41;6270949;22;20018;-96
2023/06/21 12:34:02;;;;;;;1.85;1.40;;;;;;;30.00;39.51;100591.78;6242705;23;20069;-96
2023/06/21 12:36:35;;;;;;;2.15;1.35;;;;;;;28.14;42.48;100598.81;6210300;22;20051;-96
2023/06/21 12:39:07;;;;;;;2.10;1.40;;;;;;;27.14;43.76;100602.72;6196380;23;20286;-96
2023/06/21 12:41:43;;;;;;;3.30;1.50;;;;;;;27.91;42.94;100593.00;6300090;22;20039;-96
2023/06/21 12:44:42;;;;;;;2.85;1.70;;;;;;;27.60;43.07;100596.91;6249760;22;20017;-96
2023/06/21 12:50:03;;;;;;;4.78;1.80;;;;;;;28.26;43.31;100590.25;6136339;23;20028;-96
2023/06/21 12:52:45;;;;;;;5.00;1.45;;;;;;;28.66;42.82;100588.53;6136393;23;20003;-96
2023/06/21 12:55:18;;;;;;;4.75;1.75;;;;;;;29.30;42.23;100584.41;6132922;23;20002;-96